createdAt,value
2018-10-03T09:30:21.443Z,18
2018-10-03T09:33:21.876Z,19
2018-10-03T09:36:21.456Z,19
2018-10-03T09:39:21.497Z,19
2018-10-03T09:42:21.473Z,19
2018-10-03T09:45:21.501Z,19
2018-10-03T09:48:21.583Z,19
2018-10-03T09:51:21.501Z,19
2018-10-03T09:54:21.711Z,20
2018-10-03T09:57:21.918Z,20
2018-10-03T10:00:21.535Z,21
2018-10-03T10:03:21.625Z,21
2018-10-03T10:06:21.536Z,21
2018-10-03T10:09:21.533Z,20
2018-10-03T10:12:21.541Z,20
2018-10-03T10:15:21.577Z,20
2018-10-03T10:18:21.802Z,21
2018-10-03T10:21:21.588Z,21
2018-10-03T10:24:21.578Z,21
2018-10-03T10:27:21.613Z,21
2018-10-03T10:30:21.626Z,22
2018-10-03T10:33:21.618Z,22
2018-10-03T10:36:21.725Z,22
2018-10-03T10:39:21.736Z,22
2018-10-03T10:42:21.654Z,22
2018-10-03T10:45:21.668Z,22
2018-10-03T10:51:21.679Z,22
2018-10-03T10:54:21.675Z,22
2018-10-03T10:57:21.713Z,21
2018-10-03T11:00:22.136Z,21
2018-10-03T11:03:21.820Z,20
2018-10-03T11:06:21.819Z,20
2018-10-03T11:09:21.738Z,20
2018-10-03T11:12:21.735Z,21
2018-10-03T11:15:22.224Z,21
2018-10-03T11:18:21.757Z,21
2018-10-03T11:21:21.775Z,21
2018-10-03T11:24:22.311Z,22
2018-10-03T11:27:21.911Z,23
2018-10-03T11:30:21.818Z,23
2018-10-03T11:33:21.921Z,22
2018-10-03T11:36:21.812Z,22
2018-10-03T11:39:22.266Z,21
2018-10-03T11:42:21.854Z,21
2018-10-03T11:45:21.855Z,20
2018-10-03T11:48:22.311Z,21
2018-10-03T11:51:21.984Z,23
2018-10-03T11:54:21.895Z,25
2018-10-03T11:57:21.919Z,25
2018-10-03T12:00:21.938Z,24
2018-10-03T12:03:22.165Z,23
2018-10-03T12:06:21.947Z,22
2018-10-03T12:09:22.207Z,21
2018-10-03T12:12:21.967Z,20
2018-10-03T12:18:21.968Z,18
2018-10-03T12:21:21.977Z,18
2018-10-03T12:24:22.154Z,18
2018-10-03T12:27:22.108Z,17
2018-10-03T12:39:21.968Z,17
2018-10-03T12:42:21.974Z,16
2018-10-03T12:45:21.978Z,16
2018-10-03T12:48:21.963Z,17
2018-10-03T12:51:21.971Z,17
2018-10-03T12:54:22.096Z,17
2018-10-03T13:00:22.009Z,16
2018-10-03T13:03:21.980Z,16
2018-10-03T13:06:21.976Z,16
2018-10-03T13:09:21.998Z,16
2018-10-03T13:12:22.011Z,16
2018-10-03T13:15:22.313Z,16
2018-10-03T13:18:22.016Z,16
2018-10-03T13:21:22.109Z,16
2018-10-03T13:24:22.018Z,16
2018-10-03T13:27:22.007Z,16
2018-10-03T13:30:22.007Z,17
2018-10-03T13:33:22.005Z,17
2018-10-03T13:36:22.012Z,17
2018-10-03T14:36:18.650Z,21
2018-10-03T14:39:18.643Z,21
2018-10-03T14:42:18.663Z,20
2018-10-03T14:45:18.705Z,20
2018-10-03T14:48:18.696Z,20
2018-10-03T14:51:18.709Z,19
2018-10-03T14:54:19.151Z,19
2018-10-03T14:57:19.121Z,19
2018-10-03T15:00:18.695Z,18
2018-10-03T15:03:18.811Z,18
2018-10-03T15:06:18.733Z,18
2018-10-03T15:09:18.820Z,18
2018-10-03T15:12:18.735Z,18
2018-10-03T15:15:18.729Z,17
